Time;durP1;ratioP1;P1;durP2;ratioP2;P2;SDS_P1;SDS_P2;PMS_P1;PMS_P2;Temp;Humidity;BMP_temperature;BMP_pressure;BME280_temperature;BME280_humidity;BME280_pressure;Samples;Min_cycle;Max_cycle;Signal;HPM_P1;HPM_P2
2023/04/30 00:01:10;;;;;;;5.05;3.13;;;;;;;25.41;29.42;101694.06;4131109;28;20025;-73
2023/04/30 00:03:11;;;;;;;5.65;3.65;;;;;;;25.44;29.25;101687.56;4131564;28;20772;-72
2023/04/30 00:05:13;;;;;;;5.22;3.47;;;;;;;25.46;29.42;101696.38;4131576;28;20065;-73
2023/04/30 00:07:15;;;;;;;5.57;3.70;;;;;;;25.49;29.33;101696.09;4131632;28;20572;-73
2023/04/30 00:09:16;;;;;;;;;;;;;;;25.46;29.48;101699.06;4130847;28;20046;-72
2023/04/30 00:11:18;;;;;;;4.60;3.03;;;;;;;25.46;29.71;101693.69;4131222;28;19922;-73
2023/04/30 00:13:19;;;;;;;5.72;3.30;;;;;;;25.46;29.23;101693.69;4131247;28;20042;-73
2023/04/30 00:15:21;;;;;;;5.45;3.38;;;;;;;25.46;29.30;101689.13;4131303;28;20411;-72
2023/04/30 00:17:23;;;;;;;4.80;3.10;;;;;;;25.46;29.61;101685.59;4131495;28;20057;-72
2023/04/30 00:19:25;;;;;;;;;;;;;;;25.46;29.40;101697.22;4130737;28;20054;-72
2023/04/30 00:21:26;;;;;;;6.07;3.75;;;;;;;25.42;29.50;101689.50;4130914;28;19922;-73
2023/04/30 00:23:30;;;;;;;5.35;3.58;;;;;;;25.43;29.49;101685.84;4130918;28;20046;-72
2023/04/30 00:25:31;;;;;;;5.18;3.30;;;;;;;25.45;29.60;101683.88;4131148;28;20043;-71
2023/04/30 00:27:33;;;;;;;7.55;3.92;;;;;;;25.48;29.51;101683.59;4114016;28;20101;-72
2023/04/30 00:29:34;;;;;;;;;;;;;;;25.44;29.36;101688.38;4130816;28;20412;-72
2023/04/30 00:31:36;;;;;;;5.88;3.40;;;;;;;25.38;29.13;101683.53;4131393;28;19972;-72
2023/04/30 00:33:38;;;;;;;;;;;;;;;25.40;29.35;101689.66;4131442;28;20104;-73
2023/04/30 00:35:40;;;;;;;5.95;3.15;;;;;;;25.34;29.63;101680.19;4131264;28;20344;-72
2023/04/30 00:37:42;;;;;;;5.80;3.72;;;;;;;25.35;29.63;101681.91;4130692;28;20444;-72
2023/04/30 00:39:43;;;;;;;;;;;;;;;25.32;29.42;101679.50;4130773;28;20046;-72
2023/04/30 00:41:45;;;;;;;5.78;3.88;;;;;;;25.32;29.39;101678.63;4131004;28;19929;-72
2023/04/30 00:43:46;;;;;;;;;;;;;;;25.31;29.04;101677.78;4131356;28;20082;-73
2023/04/30 00:45:48;;;;;;;5.10;3.50;;;;;;;25.27;29.36;101676.31;4131008;28;20398;-71
2023/04/30 00:47:50;;;;;;;6.28;3.70;;;;;;;25.32;29.32;101673.22;4130978;28;20054;-72
2023/04/30 00:49:52;;;;;;;5.28;3.67;;;;;;;25.32;29.24;101681.31;4129893;28;20046;-72
2023/04/30 00:51:54;;;;;;;5.38;3.55;;;;;;;25.32;29.32;101665.16;4130633;28;20105;-73
2023/04/30 00:53:56;;;;;;;5.95;3.53;;;;;;;25.29;29.27;101668.97;4130942;28;20054;-72
2023/04/30 00:55:58;;;;;;;6.35;3.50;;;;;;;25.30;29.07;101667.13;4130733;28;20382;-73
2023/04/30 00:58:00;;;;;;;5.32;3.30;;;;;;;25.28;29.51;101666.41;4113486;28;20133;-72
2023/04/30 01:00:01;;;;;;;;;;;;;;;25.26;29.47;101666.50;4130637;28;20496;-73
2023/04/30 01:02:03;;;;;;;5.45;3.15;;;;;;;25.26;29.41;101666.50;4130920;28;19945;-73
2023/04/30 01:04:05;;;;;;;5.10;3.30;;;;;;;25.31;29.28;101658.94;4130850;28;20081;-72
2023/04/30 01:06:06;;;;;;;5.32;3.20;;;;;;;25.34;29.46;101658.66;4130434;28;20042;-73
2023/04/30 01:08:09;;;;;;;;;;;;;;;25.31;29.60;101658.94;4131146;28;20070;-73
2023/04/30 01:10:15;;;;;;;5.60;3.58;;;;;;;25.31;29.60;101661.63;4129839;28;19952;-72
2023/04/30 01:12:16;;;;;;;6.05;2.90;;;;;;;25.33;29.54;101656.09;4131066;28;20480;-73
2023/04/30 01:14:39;;;;;;;6.18;3.63;;;;;;;25.38;29.21;101653.91;4130738;28;20050;-73
2023/04/30 01:16:50;;;;;;;4.93;3.33;;;;;;;25.33;29.28;101654.25;4130584;28;20133;-72
2023/04/30 01:18:59;;;;;;;5.13;3.00;;;;;;;25.35;29.15;101654.97;4130536;28;20053;-73
2023/04/30 01:21:04;;;;;;;4.70;3.25;;;;;;;25.33;29.11;101651.56;4129475;28;20129;-73
2023/04/30 01:23:46;;;;;;;6.05;3.00;;;;;;;25.40;29.50;101653.78;4130433;28;20058;-72
2023/04/30 01:25:58;;;;;;;4.65;3.13;;;;;;;25.35;29.42;101646.91;4119504;28;20141;-72
2023/04/30 01:28:18;;;;;;;4.30;2.97;;;;;;;25.42;29.31;101649.13;4130572;28;20080;-73
2023/04/30 01:30:21;;;;;;;4.82;3.38;;;;;;;25.35;29.47;101641.53;4129741;28;20471;-72
2023/04/30 01:32:23;;;;;;;4.97;3.40;;;;;;;25.39;29.72;101646.69;4130878;28;20050;-72
2023/04/30 01:34:24;;;;;;;;;;;;;;;25.36;29.19;101645.94;4131102;28;20046;-72
2023/04/30 01:36:38;;;;;;;4.70;2.90;;;;;;;25.35;29.56;101648.75;4130188;28;20394;-73
2023/04/30 01:39:16;;;;;;;5.43;3.30;;;;;;;25.41;29.14;101648.28;4130472;28;20046;-72
2023/04/30 01:41:17;;;;;;;4.68;3.05;;;;;;;25.38;29.19;101648.50;4129508;28;20780;-73
2023/04/30 01:43:47;;;;;;;5.47;3.10;;;;;;;25.42;29.44;101644.59;4130566;28;20104;-73
2023/04/30 01:46:03;;;;;;;4.50;2.97;;;;;;;25.41;29.14;101637.50;4130430;28;20056;-72
2023/04/30 01:48:26;;;;;;;4.80;3.10;;;;;;;25.44;29.43;101639.91;4130353;28;20049;-73
2023/04/30 01:50:41;;;;;;;4.88;2.80;;;;;;;25.43;29.44;101643.63;4130785;28;20058;-73
2023/04/30 01:52:49;;;;;;;4.75;3.10;;;;;;;25.42;29.23;101650.00;4133617;28;20096;-73
2023/04/30 01:54:58;;;;;;;5.30;3.28;;;;;;;25.44;29.08;101641.78;4133720;28;20046;-72
2023/04/30 01:57:17;;;;;;;4.60;2.83;;;;;;;25.45;29.23;101646.19;4133366;28;20054;-73
2023/04/30 01:59:19;;;;;;;5.40;3.20;;;;;;;25.40;29.49;101651.09;4133408;28;20054;-73
2023/04/30 02:01:28;;;;;;;4.80;3.10;;;;;;;25.45;29.19;101648.88;4132620;28;20122;-72
2023/04/30 02:03:32;;;;;;;4.50;2.58;;;;;;;25.44;29.10;101652.53;4133239;28;20070;-72
2023/04/30 02:05:33;;;;;;;4.32;2.85;;;;;;;25.44;29.14;101652.53;4133273;28;20077;-73
2023/04/30 02:07:39;;;;;;;;;;;;;;;25.43;29.08;101648.13;4133866;28;20054;-73
2023/04/30 02:09:41;;;;;;;4.78;3.10;;;;;;;25.38;29.48;101640.44;4132475;28;19921;-73
2023/04/30 02:11:43;;;;;;;4.72;3.10;;;;;;;25.44;29.30;101639.06;4133152;28;20042;-73
2023/04/30 02:13:44;;;;;;;4.55;3.08;;;;;;;25.43;29.18;101645.44;4133295;28;20092;-72
2023/04/30 02:15:46;;;;;;;4.40;2.88;;;;;;;25.45;29.19;101651.56;4133285;28;20579;-72
2023/04/30 02:17:47;;;;;;;4.90;3.33;;;;;;;25.44;29.50;101655.22;4133218;28;20556;-72
2023/04/30 02:19:49;;;;;;;4.78;3.03;;;;;;;25.44;29.29;101653.38;4132141;28;20778;-73
2023/04/30 02:21:51;;;;;;;4.28;2.70;;;;;;;25.47;29.07;101649.56;4132756;28;20627;-73
2023/04/30 02:23:53;;;;;;;4.93;3.20;;;;;;;25.47;29.24;101644.19;4133143;28;20556;-72
2023/04/30 02:25:54;;;;;;;4.85;3.20;;;;;;;25.47;29.52;101645.06;4133035;28;20050;-73
2023/04/30 02:27:56;;;;;;;4.70;3.15;;;;;;;25.48;29.29;101662.94;4132806;28;20137;-72
2023/04/30 02:29:58;;;;;;;4.93;3.30;;;;;;;25.49;29.26;101648.50;4115158;28;20121;-72
2023/04/30 02:32:00;;;;;;;6.20;3.08;;;;;;;25.49;29.01;101650.31;4132810;28;20046;-72
2023/04/30 02:34:02;;;;;;;4.30;2.90;;;;;;;25.49;29.01;101648.50;4132774;28;20076;-72
2023/04/30 02:36:03;;;;;;;;;;;;;;;25.46;28.96;101647.88;4133293;28;20047;-72
2023/04/30 02:38:07;;;;;;;5.18;3.08;;;;;;;25.44;29.56;101641.78;4132950;28;19972;-73
2023/04/30 02:40:09;;;;;;;4.57;2.80;;;;;;;25.47;29.12;101644.19;4131960;28;20504;-72
2023/04/30 02:42:11;;;;;;;4.72;3.00;;;;;;;25.48;29.34;101649.47;4132554;28;20057;-73
2023/04/30 02:44:13;;;;;;;;;;;;;;;25.46;29.06;101648.72;4133274;28;20126;-73
2023/04/30 02:46:14;;;;;;;5.32;3.10;;;;;;;25.44;29.42;101647.16;4132741;28;19921;-73
2023/04/30 02:48:16;;;;;;;;;;;;;;;25.46;29.25;101651.41;4132782;28;20042;-73
2023/04/30 02:50:17;;;;;;;4.97;3.10;;;;;;;25.44;29.12;101652.53;4132051;28;19949;-73
2023/04/30 02:52:19;;;;;;;;;;;;;;;25.44;29.40;101656.06;4132883;28;20054;-73
2023/04/30 02:54:20;;;;;;;4.30;2.90;;;;;;;25.44;29.18;101655.22;4132662;28;19996;-73
2023/04/30 02:56:22;;;;;;;;;;;;;;;25.46;29.23;101658.66;4133005;28;20126;-72
2023/04/30 02:58:24;;;;;;;4.18;2.80;;;;;;;25.43;29.36;101656.22;4132613;28;19928;-74
2023/04/30 03:00:26;;;;;;;5.32;3.40;;;;;;;25.46;29.71;101646.03;4131513;28;20435;-73
2023/04/30 03:02:27;;;;;;;4.70;2.95;;;;;;;25.47;29.41;101652.25;4130857;28;20050;-73
2023/04/30 03:04:29;;;;;;;;;;;;;;;25.44;29.30;101648.00;4133123;28;20543;-72
2023/04/30 03:06:31;;;;;;;5.00;2.97;;;;;;;25.44;29.26;101647.16;4131513;28;19960;-73
2023/04/30 03:08:33;;;;;;;4.30;3.20;;;;;;;25.47;29.19;101650.44;4132531;28;20088;-73
2023/04/30 03:10:35;;;;;;;4.63;2.85;;;;;;;25.48;29.21;101648.59;4131427;28;20128;-73
2023/04/30 03:12:36;;;;;;;4.20;2.75;;;;;;;25.47;29.01;101638.81;4132195;28;20049;-73
2023/04/30 03:14:38;;;;;;;;;;;;;;;25.47;28.86;101644.19;4132756;28;20151;-73
2023/04/30 03:16:40;;;;;;;4.90;3.38;;;;;;;25.45;29.06;101648.88;4132042;28;19926;-73
2023/04/30 03:18:42;;;;;;;5.03;3.30;;;;;;;25.47;29.33;101638.81;4132360;28;20125;-74
2023/04/30 03:20:43;;;;;;;5.40;2.97;;;;;;;25.47;28.92;101642.38;4131199;28;20166;-73
2023/04/30 03:22:45;;;;;;;;;;;;;;;25.45;28.89;101643.47;4132469;28;20062;-73
2023/04/30 03:24:46;;;;;;;4.57;3.00;;;;;;;25.43;29.38;101643.63;4132169;28;20302;-73
2023/04/30 03:26:48;;;;;;;5.07;3.10;;;;;;;25.45;29.12;101635.41;4132022;28;20443;-73
2023/04/30 03:28:50;;;;;;;4.30;2.78;;;;;;;25.48;28.91;101637.81;4132245;28;20129;-73
2023/04/30 03:30:51;;;;;;;6.20;2.97;;;;;;;25.46;29.05;101634.44;4131057;28;20054;-73
2023/04/30 03:32:53;;;;;;;4.55;2.80;;;;;;;25.50;29.17;101633.16;4131970;28;20094;-74
2023/04/30 03:34:55;;;;;;;;;;;;;;;25.47;28.93;101638.81;4132381;28;20047;-73
2023/04/30 03:36:56;;;;;;;4.53;3.10;;;;;;;25.44;29.35;101641.78;4131959;28;20303;-73
2023/04/30 03:38:58;;;;;;;4.25;2.72;;;;;;;25.46;29.22;101629.03;4131932;28;20056;-73
2023/04/30 03:41:00;;;;;;;5.70;3.28;;;;;;;25.47;29.04;101639.66;4131214;28;20055;-73
2023/04/30 03:43:01;;;;;;;;;;;;;;;25.44;29.12;101634.53;4132349;28;20077;-73
2023/04/30 03:45:03;;;;;;;4.68;3.10;;;;;;;25.40;29.33;101626.88;4131857;28;20005;-74
2023/04/30 03:47:05;;;;;;;4.35;2.70;;;;;;;25.46;29.07;101629.88;4131491;28;20042;-74
2023/04/30 03:49:07;;;;;;;4.82;3.13;;;;;;;25.48;28.95;101633.31;4114575;28;20098;-73
2023/04/30 03:51:09;;;;;;;5.22;3.15;;;;;;;25.51;28.97;101634.88;4113640;28;20046;-73
2023/04/30 03:53:10;;;;;;;4.80;3.20;;;;;;;25.50;29.28;101639.38;4131744;28;20763;-73
2023/04/30 03:55:12;;;;;;;5.45;3.17;;;;;;;25.49;29.22;101635.00;4131687;28;20046;-73
2023/04/30 03:57:14;;;;;;;;;;;;;;;25.48;29.18;101635.13;4131958;28;20046;-73
2023/04/30 03:59:16;;;;;;;4.72;3.03;;;;;;;25.42;29.14;101639.22;4131669;28;19922;-73
2023/04/30 04:01:18;;;;;;;4.50;2.92;;;;;;;25.49;28.85;101644.91;4130310;28;20419;-74
2023/04/30 04:03:19;;;;;;;4.88;3.40;;;;;;;25.52;29.05;101644.66;4131408;28;20060;-74
2023/04/30 04:05:25;;;;;;;5.22;3.33;;;;;;;25.49;29.28;101636.84;4131366;28;20046;-73
2023/04/30 04:07:26;;;;;;;4.75;3.13;;;;;;;25.50;28.94;101625.09;4131629;28;20400;-74
2023/04/30 04:09:28;;;;;;;4.82;3.10;;;;;;;25.52;29.20;101632.03;4131492;28;20046;-73
2023/04/30 04:11:30;;;;;;;4.45;3.15;;;;;;;25.53;29.19;101632.91;4130492;28;20060;-74
2023/04/30 04:13:31;;;;;;;4.57;2.85;;;;;;;25.54;28.99;101633.75;4131286;28;20046;-73
2023/04/30 04:15:33;;;;;;;5.68;2.80;;;;;;;25.53;29.00;101635.63;4131045;28;20050;-74
2023/04/30 04:17:35;;;;;;;4.50;3.10;;;;;;;25.52;29.38;101639.28;4131496;28;20134;-74
2023/04/30 04:19:36;;;;;;;;;;;;;;;25.50;29.18;101635.84;4131852;28;20056;-73
2023/04/30 04:21:38;;;;;;;4.78;3.45;;;;;;;25.47;29.04;101633.41;4130315;28;19922;-73
2023/04/30 04:23:39;;;;;;;4.47;2.95;;;;;;;25.51;29.33;101630.34;4131367;28;20057;-74
2023/04/30 04:25:43;;;;;;;4.40;2.85;;;;;;;25.52;29.35;101636.59;4131265;28;20669;-73
2023/04/30 04:27:45;;;;;;;4.72;3.08;;;;;;;25.52;29.45;101631.22;4131196;28;20081;-73
2023/04/30 04:29:46;;;;;;;4.90;3.20;;;;;;;25.54;29.23;101631.91;4130956;28;20419;-73
2023/04/30 04:31:49;;;;;;;5.30;3.05;;;;;;;25.55;29.19;101639.00;4130206;28;20085;-73
2023/04/30 04:33:57;;;;;;;4.45;3.17;;;;;;;25.51;28.96;101632.19;4131103;28;20057;-73
2023/04/30 04:35:58;;;;;;;5.55;3.40;;;;;;;25.56;29.05;101634.50;4131013;28;20046;-73
2023/04/30 04:38:00;;;;;;;5.07;3.20;;;;;;;25.55;28.96;101640.88;4131151;28;20050;-73
2023/04/30 04:40:03;;;;;;;4.88;3.47;;;;;;;25.55;29.25;101638.16;4130822;28;20050;-73
2023/04/30 04:42:05;;;;;;;4.25;3.03;;;;;;;25.48;28.92;101621.66;4113338;28;20151;-73
2023/04/30 04:44:06;;;;;;;4.75;3.38;;;;;;;25.56;29.00;101632.63;4130866;28;20154;-73
2023/04/30 04:46:08;;;;;;;5.88;3.50;;;;;;;25.55;29.15;101633.63;4131107;28;20113;-73
2023/04/30 04:48:13;;;;;;;5.45;3.40;;;;;;;25.58;29.41;101643.28;4130712;28;20416;-74
2023/04/30 04:50:15;;;;;;;5.07;3.13;;;;;;;25.58;29.27;101638.75;4130245;28;20046;-74
2023/04/30 04:52:16;;;;;;;;;;;;;;;25.54;29.13;101639.16;4131207;28;20522;-73
2023/04/30 04:54:17;;;;;;;4.95;3.40;;;;;;;25.52;29.23;101647.38;4130989;28;19921;-73
2023/04/30 04:56:19;;;;;;;5.35;3.60;;;;;;;25.57;29.09;101646.97;4130802;28;20443;-74
2023/04/30 04:58:21;;;;;;;;;;;;;;;25.55;28.96;101654.31;4131097;28;20488;-74
2023/04/30 05:00:24;;;;;;;4.93;3.30;;;;;;;25.51;29.25;101646.50;4130061;28;19922;-73
2023/04/30 05:02:26;;;;;;;5.38;3.65;;;;;;;25.54;29.10;101653.47;4130620;28;20093;-74
2023/04/30 05:04:29;;;;;;;;;;;;;;;25.52;29.03;101658.13;4131089;28;20070;-73
2023/04/30 05:06:30;;;;;;;5.35;3.40;;;;;;;25.49;29.29;101651.19;4130981;28;20349;-73
2023/04/30 05:08:32;;;;;;;4.97;3.30;;;;;;;25.53;29.09;101654.47;4130900;28;20065;-73
2023/04/30 05:10:34;;;;;;;5.43;3.55;;;;;;;25.56;28.81;101647.97;4129936;28;20066;-72
2023/04/30 05:12:35;;;;;;;;;;;;;;;25.54;28.95;101652.63;4130723;28;20046;-73
2023/04/30 05:14:37;;;;;;;4.63;3.50;;;;;;;25.51;28.96;101659.13;4130679;28;19922;-73
2023/04/30 05:16:39;;;;;;;;;;;;;;;25.51;28.78;101659.97;4130975;28;20198;-74
2023/04/30 05:18:40;;;;;;;5.18;3.22;;;;;;;25.49;29.17;101661.94;4130819;28;19972;-73
2023/04/30 05:20:42;;;;;;;5.57;3.42;;;;;;;25.49;29.35;101655.69;4129748;28;20042;-73
2023/04/30 05:22:44;;;;;;;5.40;3.45;;;;;;;25.55;28.92;101660.56;4130208;28;20047;-73
2023/04/30 05:24:45;;;;;;;4.93;3.50;;;;;;;25.57;29.22;101666.69;4131397;28;20112;-72
2023/04/30 05:26:47;;;;;;;4.88;3.55;;;;;;;25.57;29.21;101666.69;4133784;28;20416;-72
2023/04/30 05:28:49;;;;;;;4.53;3.00;;;;;;;25.57;29.18;101671.22;4133723;28;20113;-73
2023/04/30 05:30:51;;;;;;;5.15;3.50;;;;;;;25.60;28.87;101668.25;4133225;28;20428;-72
2023/04/30 05:32:52;;;;;;;;;;;;;;;25.56;28.75;101667.66;4134200;28;20077;-72
2023/04/30 05:34:54;;;;;;;5.38;3.30;;;;;;;25.53;29.00;101670.63;4133971;28;20389;-72
2023/04/30 05:36:56;;;;;;;;;;;;;;;25.54;28.84;101674.16;4134065;28;20101;-73
2023/04/30 05:38:57;;;;;;;5.97;3.88;;;;;;;25.52;29.38;101674.31;4133477;28;19933;-72
2023/04/30 05:40:59;;;;;;;;;;;;;;;25.54;28.91;101671.47;4133595;28;20046;-73
2023/04/30 05:43:01;;;;;;;5.85;3.40;;;;;;;25.52;29.00;101675.16;4133374;28;19980;-72
2023/04/30 05:45:03;;;;;;;6.32;3.80;;;;;;;25.54;29.23;101677.69;4133643;28;20126;-72
2023/04/30 05:47:04;;;;;;;4.80;3.20;;;;;;;25.56;28.90;101667.66;4133518;28;20468;-73
2023/04/30 05:49:06;;;;;;;4.90;3.20;;;;;;;25.58;28.95;101672.91;4133707;28;20060;-72
2023/04/30 05:51:09;;;;;;;6.38;3.50;;;;;;;25.58;29.01;101663.00;4132953;28;20053;-73
2023/04/30 05:53:12;;;;;;;4.75;3.05;;;;;;;25.61;28.99;101668.13;4133500;28;20094;-72
2023/04/30 05:55:14;;;;;;;4.50;2.92;;;;;;;25.63;28.87;101668.84;4133654;28;20054;-72
2023/04/30 05:57:16;;;;;;;5.45;3.33;;;;;;;25.64;29.22;101672.41;4133285;28;20072;-72
2023/04/30 05:59:17;;;;;;;5.97;3.42;;;;;;;25.64;28.71;101673.25;4133611;28;20054;-73
2023/04/30 06:01:20;;;;;;;5.32;3.50;;;;;;;25.61;29.07;101669.97;4132435;28;20496;-72
2023/04/30 06:03:22;;;;;;;5.32;3.03;;;;;;;25.64;29.06;101672.41;4133394;28;20097;-72
2023/04/30 06:05:24;;;;;;;4.57;3.03;;;;;;;25.62;28.81;101672.53;4133256;28;20051;-75
2023/04/30 06:07:25;;;;;;;4.75;3.10;;;;;;;25.64;29.08;101669.72;4133542;28;20064;-74
2023/04/30 06:09:27;;;;;;;4.75;3.20;;;;;;;25.64;29.25;101667.88;4133407;28;20062;-74
2023/04/30 06:11:30;;;;;;;5.68;3.40;;;;;;;25.64;29.11;101670.56;4115013;28;20054;-72
2023/04/30 06:13:31;;;;;;;5.47;3.30;;;;;;;25.64;28.88;101667.88;4133267;28;20054;-72
2023/04/30 06:15:33;;;;;;;5.70;3.35;;;;;;;25.66;28.76;101673.13;4133353;28;20042;-72
2023/04/30 06:17:34;;;;;;;;;;;;;;;25.65;29.00;101677.66;4133616;28;20046;-72
2023/04/30 06:19:37;;;;;;;4.63;3.17;;;;;;;25.61;29.06;101675.34;4133206;28;20342;-71
2023/04/30 06:21:39;;;;;;;5.22;3.80;;;;;;;25.63;28.58;101674.22;4132116;28;20096;-74
2023/04/30 06:23:40;;;;;;;4.90;3.15;;;;;;;25.65;29.04;101671.41;4133194;28;20149;-75
2023/04/30 06:25:42;;;;;;;5.20;3.40;;;;;;;25.63;28.98;101671.53;4132856;28;20397;-72
2023/04/30 06:27:44;;;;;;;5.03;3.30;;;;;;;25.65;29.27;101679.47;4132964;28;20057;-73
2023/04/30 06:29:45;;;;;;;;;;;;;;;25.63;28.92;101676.94;4133709;28;20054;-71
2023/04/30 06:31:47;;;;;;;6.75;3.50;;;;;;;25.59;29.50;101680.88;4132070;28;20374;-71
2023/04/30 06:33:49;;;;;;;;;;;;;;;25.60;28.97;101682.59;4133508;28;20093;-72
2023/04/30 06:35:54;;;;;;;;;;;;;;;25.57;29.21;101674.75;4133207;28;20375;-73
2023/04/30 06:37:55;;;;;;;5.97;3.38;;;;;;;25.50;29.28;101670.88;4132938;28;20419;-71
2023/04/30 06:39:57;;;;;;;5.20;3.38;;;;;;;25.61;29.15;101681.59;4132631;28;20046;-73
2023/04/30 06:41:59;;;;;;;5.60;3.95;;;;;;;25.64;28.82;101685.88;4132075;28;20107;-73
2023/04/30 06:44:00;;;;;;;;;;;;;;;25.62;28.87;101674.38;4116066;28;20420;-72
2023/04/30 06:46:02;;;;;;;5.05;3.25;;;;;;;25.59;29.09;101678.19;4132826;28;19922;-72
2023/04/30 06:48:04;;;;;;;6.32;3.60;;;;;;;25.63;29.07;101679.63;4132885;28;20515;-74
2023/04/30 06:50:06;;;;;;;4.45;3.08;;;;;;;25.65;29.09;101677.66;4132691;28;20121;-72
2023/04/30 06:52:08;;;;;;;4.72;3.10;;;;;;;25.64;28.99;101672.41;4131755;28;20046;-74
2023/04/30 06:54:10;;;;;;;4.93;3.45;;;;;;;25.65;28.79;101677.66;4132253;28;20047;-73
2023/04/30 06:56:12;;;;;;;;;;;;;;;25.64;28.90;101678.66;4133074;28;20050;-72
2023/04/30 06:58:13;;;;;;;4.90;3.08;;;;;;;25.58;28.91;101662.13;4132435;28;20371;-74
2023/04/30 07:00:15;;;;;;;;;;;;;;;25.64;29.01;101672.41;4133101;28;20125;-71
2023/04/30 07:02:17;;;;;;;4.80;3.40;;;;;;;25.62;28.96;101672.53;4131532;28;19928;-72
2023/04/30 07:04:23;;;;;;;6.25;3.22;;;;;;;25.66;28.95;101671.28;4132731;28;20116;-70
2023/04/30 07:06:25;;;;;;;4.97;3.22;;;;;;;25.68;29.18;101663.91;4132611;28;20500;-72
2023/04/30 07:08:26;;;;;;;;;;;;;;;25.66;28.79;101668.59;4132626;28;20046;-72
2023/04/30 07:10:30;;;;;;;5.25;3.20;;;;;;;25.65;29.10;101672.28;4132388;28;19922;-74
2023/04/30 07:12:31;;;;;;;4.53;2.95;;;;;;;25.68;28.93;101676.53;4131696;28;20542;-72
2023/04/30 07:14:33;;;;;;;;;;;;;;;25.67;28.98;101670.28;4132880;28;20077;-72
2023/04/30 07:16:35;;;;;;;4.60;3.08;;;;;;;25.67;28.89;101664.06;4132542;28;19961;-72
2023/04/30 07:18:36;;;;;;;;;;;;;;;25.70;28.91;101662.94;4132583;28;20039;-72
2023/04/30 07:20:38;;;;;;;4.40;2.97;;;;;;;25.69;29.05;101670.19;4131729;28;19921;-75
2023/04/30 07:22:44;;;;;;;4.78;3.15;;;;;;;25.73;29.02;101674.31;4131493;28;20484;-73
2023/04/30 07:24:46;;;;;;;5.47;3.22;;;;;;;25.72;29.22;101671.75;4132034;28;20130;-74
2023/04/30 07:26:48;;;;;;;4.80;3.20;;;;;;;25.72;29.22;101674.44;4132287;28;20077;-74
2023/04/30 07:28:49;;;;;;;;;;;;;;;25.72;28.96;101675.28;4132483;28;20471;-71
2023/04/30 07:30:52;;;;;;;5.28;3.40;;;;;;;25.69;28.96;101675.56;4131481;28;19921;-74
2023/04/30 07:32:53;;;;;;;4.55;2.85;;;;;;;25.75;29.43;101682.25;4114476;28;20524;-74
2023/04/30 07:34:55;;;;;;;5.38;3.30;;;;;;;25.77;29.00;101680.28;4132036;28;20387;-74
2023/04/30 07:36:56;;;;;;;4.40;3.10;;;;;;;25.79;29.18;101686.41;4131910;28;20046;-74
2023/04/30 07:38:58;;;;;;;5.00;3.10;;;;;;;25.77;29.09;101680.28;4131650;28;20050;-74
2023/04/30 07:41:00;;;;;;;5.03;3.25;;;;;;;25.79;29.06;101692.66;4131210;28;20050;-73
2023/04/30 07:43:03;;;;;;;4.72;3.15;;;;;;;25.78;28.89;101685.53;4131517;28;20137;-74
2023/04/30 07:45:05;;;;;;;4.60;3.15;;;;;;;25.80;29.18;101688.13;4131727;28;20100;-74
2023/04/30 07:47:07;;;;;;;5.20;2.92;;;;;;;25.81;28.88;101681.75;4114554;28;20126;-74
2023/04/30 07:49:09;;;;;;;5.25;3.13;;;;;;;25.82;29.04;101683.44;4131563;28;20042;-73
2023/04/30 07:51:10;;;;;;;5.55;3.60;;;;;;;25.81;29.11;101687.16;4130950;28;20112;-73
2023/04/30 07:53:12;;;;;;;5.05;3.00;;;;;;;25.82;29.02;101687.00;4131553;28;20058;-73
2023/04/30 07:55:13;;;;;;;5.90;3.20;;;;;;;25.83;28.84;101679.75;4131835;28;20060;-73
2023/04/30 07:57:15;;;;;;;;;;;;;;;25.82;28.76;101687.00;4132092;28;20058;-71
2023/04/30 07:59:16;;;;;;;5.30;3.10;;;;;;;25.81;29.01;101688.00;4131440;28;19922;-73
2023/04/30 08:01:18;;;;;;;;;;;;;;;25.82;28.98;101688.81;4131654;28;20440;-73
2023/04/30 08:03:19;;;;;;;5.20;3.20;;;;;;;25.80;29.22;101691.66;4131374;28;19921;-73
2023/04/30 08:05:22;;;;;;;5.15;3.45;;;;;;;25.83;29.29;101679.75;4131599;28;20112;-72
2023/04/30 08:07:24;;;;;;;5.05;3.28;;;;;;;25.86;28.80;101682.22;4131155;28;20050;-73
2023/04/30 08:09:25;;;;;;;5.07;3.47;;;;;;;25.87;28.86;101685.75;4131483;28;20117;-73
2023/04/30 08:11:27;;;;;;;5.10;3.50;;;;;;;25.85;29.00;101680.50;4130505;28;20050;-73
2023/04/30 08:13:29;;;;;;;;;;;;;;;25.86;28.93;101676.81;4131924;28;20046;-70
2023/04/30 08:15:32;;;;;;;;;;;;;;;25.85;28.91;101683.19;4131579;28;19988;-70
2023/04/30 08:17:34;;;;;;;4.70;3.10;;;;;;;25.88;28.90;101676.69;4131367;28;19941;-72
2023/04/30 08:19:36;;;;;;;4.68;3.15;;;;;;;25.89;28.90;101678.38;4131224;28;20097;-73
2023/04/30 08:21:38;;;;;;;5.82;3.55;;;;;;;25.90;29.28;101670.16;4129844;28;20047;-73
2023/04/30 08:23:39;;;;;;;4.90;3.30;;;;;;;25.92;28.93;101670.03;4131240;28;20050;-72
2023/04/30 08:25:41;;;;;;;4.68;3.33;;;;;;;25.89;28.96;101660.38;4113981;28;20153;-72
2023/04/30 08:27:43;;;;;;;4.88;3.40;;;;;;;25.95;29.20;101669.78;4114243;28;20134;-72
2023/04/30 08:29:44;;;;;;;;;;;;;;;25.92;29.03;101664.63;4131509;28;20080;-70
2023/04/30 08:31:46;;;;;;;4.78;3.30;;;;;;;25.89;28.99;101667.63;4130400;28;19922;-73
2023/04/30 08:33:48;;;;;;;4.65;3.00;;;;;;;25.91;29.01;101669.19;4114202;28;20484;-72
2023/04/30 08:35:49;;;;;;;8.43;3.63;;;;;;;25.86;29.16;101655.25;4130735;28;20120;-73
2023/04/30 08:37:52;;;;;;;4.75;3.03;;;;;;;25.94;29.14;101660.84;4131298;28;20054;-73
2023/04/30 08:39:53;;;;;;;5.75;3.17;;;;;;;25.93;29.39;101664.53;4131046;28;20050;-73
2023/04/30 08:42:01;;;;;;;5.35;3.33;;;;;;;25.90;28.92;101656.69;4130017;28;20504;-73
2023/04/30 08:44:03;;;;;;;4.82;3.45;;;;;;;25.95;28.98;101667.06;4131274;28;20081;-73
2023/04/30 08:46:07;;;;;;;4.88;3.10;;;;;;;25.95;28.86;101667.91;4131106;28;20519;-73
2023/04/30 08:48:11;;;;;;;5.13;3.20;;;;;;;25.95;29.10;101665.22;4131131;28;20464;-73
2023/04/30 08:50:14;;;;;;;4.53;2.90;;;;;;;25.96;29.18;101658.84;4130700;28;20050;-72
2023/04/30 08:52:18;;;;;;;;;;;;;;;25.95;29.31;101667.91;4130457;28;20054;-71
2023/04/30 08:54:23;;;;;;;6.00;3.25;;;;;;;25.93;29.36;101660.97;4131055;28;19934;-73
2023/04/30 08:56:25;;;;;;;5.80;3.60;;;;;;;25.95;29.38;101661.69;4113666;28;20528;-74
2023/04/30 08:58:26;;;;;;;;;;;;;;;25.93;29.34;101664.53;4131340;28;20054;-70
2023/04/30 09:00:31;;;;;;;4.90;3.33;;;;;;;25.90;29.35;101656.69;4129918;28;19921;-73
2023/04/30 09:02:33;;;;;;;5.65;3.10;;;;;;;25.96;29.21;101653.47;4129990;28;20133;-73
2023/04/30 09:04:35;;;;;;;5.13;3.15;;;;;;;25.98;29.29;101656.88;4130686;28;20077;-73
2023/04/30 09:06:36;;;;;;;5.03;3.15;;;;;;;25.97;29.18;101648.94;4130853;28;20097;-73
2023/04/30 09:08:46;;;;;;;5.75;3.45;;;;;;;26.01;28.89;101646.84;4130709;28;20052;-73
2023/04/30 09:10:48;;;;;;;5.13;3.20;;;;;;;26.02;29.12;101651.25;4130874;28;20081;-73
2023/04/30 09:13:07;;;;;;;5.47;3.30;;;;;;;26.03;28.94;101643.03;4129778;28;20411;-73
2023/04/30 09:15:09;;;;;;;4.70;3.13;;;;;;;25.93;29.05;101642.97;4130962;28;20054;-73
2023/04/30 09:17:20;;;;;;;4.40;3.30;;;;;;;25.99;29.23;101645.13;4130690;28;20619;-73
2023/04/30 09:19:27;;;;;;;4.47;3.05;;;;;;;26.03;29.06;101650.22;4112956;28;20097;-74
2023/04/30 09:21:33;;;;;;;5.47;3.30;;;;;;;26.03;29.01;101647.53;4129509;28;20097;-72
2023/04/30 09:23:57;;;;;;;5.70;3.25;;;;;;;26.04;29.15;101646.56;4130767;28;20160;-74
2023/04/30 09:25:59;;;;;;;4.68;3.00;;;;;;;26.03;29.11;101644.84;4130772;28;20050;-72
2023/04/30 09:28:11;;;;;;;;;;;;;;;26.01;29.49;101646.84;4131234;28;20046;-71
2023/04/30 09:30:30;;;;;;;4.93;3.10;;;;;;;26.02;29.39;101659.34;4130637;28;19930;-72
2023/04/30 09:32:32;;;;;;;5.20;3.13;;;;;;;25.97;28.99;101651.63;4129598;28;20100;-73
2023/04/30 09:34:34;;;;;;;;;;;;;;;25.99;29.31;101652.34;4113613;28;20504;-71
2023/04/30 09:36:36;;;;;;;4.78;2.92;;;;;;;25.99;29.04;101650.50;4129559;28;19925;-71
2023/04/30 09:38:38;;;;;;;5.18;3.22;;;;;;;26.02;29.35;101645.84;4130639;28;20423;-71
2023/04/30 09:40:41;;;;;;;4.40;2.85;;;;;;;26.03;29.29;101652.94;4113385;28;20055;-72
2023/04/30 09:43:03;;;;;;;5.03;3.10;;;;;;;26.06;29.34;101648.13;4129637;28;20050;-72